sensor_id;sensor_type;location;lat;lon;timestamp;temperature;humidity
40077;DHT22;25777;47.824;18.982;2023-04-06T00:00:59;-1.30;99.90
40077;DHT22;25777;47.824;18.982;2023-04-06T00:03:25;-1.50;99.90
40077;DHT22;25777;47.824;18.982;2023-04-06T00:05:53;-1.50;99.90
40077;DHT22;25777;47.824;18.982;2023-04-06T00:08:19;-1.70;99.90
40077;DHT22;25777;47.824;18.982;2023-04-06T00:10:49;-1.60;99.90
40077;DHT22;25777;47.824;18.982;2023-04-06T00:13:21;-1.40;99.90
40077;DHT22;25777;47.824;18.982;2023-04-06T00:15:47;-1.50;99.90
40077;DHT22;25777;47.824;18.982;2023-04-06T00:18:13;-1.40;99.90
40077;DHT22;25777;47.824;18.982;2023-04-06T00:20:49;-1.60;99.90
40077;DHT22;25777;47.824;18.982;2023-04-06T00:23:16;-1.60;99.90
40077;DHT22;25777;47.824;18.982;2023-04-06T00:25:49;-1.70;99.90
40077;DHT22;25777;47.824;18.982;2023-04-06T00:28:30;-1.60;99.90
40077;DHT22;25777;47.824;18.982;2023-04-06T00:30:56;-1.30;99.90
40077;DHT22;25777;47.824;18.982;2023-04-06T00:33:25;-1.50;99.90
40077;DHT22;25777;47.824;18.982;2023-04-06T00:35:54;-1.50;99.90
40077;DHT22;25777;47.824;18.982;2023-04-06T00:38:39;-1.50;99.90
40077;DHT22;25777;47.824;18.982;2023-04-06T00:41:05;-1.70;99.90
40077;DHT22;25777;47.824;18.982;2023-04-06T00:43:32;-1.90;99.90
40077;DHT22;25777;47.824;18.982;2023-04-06T00:46:04;-1.70;99.90
40077;DHT22;25777;47.824;18.982;2023-04-06T00:48:41;-1.60;99.90
40077;DHT22;25777;47.824;18.982;2023-04-06T00:51:08;-1.80;99.90
40077;DHT22;25777;47.824;18.982;2023-04-06T00:53:34;-1.90;99.90
40077;DHT22;25777;47.824;18.982;2023-04-06T00:56:00;-1.90;99.90
40077;DHT22;25777;47.824;18.982;2023-04-06T00:58:26;-1.80;99.90
40077;DHT22;25777;47.824;18.982;2023-04-06T01:00:52;-2.00;99.90
40077;DHT22;25777;47.824;18.982;2023-04-06T01:03:21;-1.80;99.90
40077;DHT22;25777;47.824;18.982;2023-04-06T01:05:58;-1.80;99.90
40077;DHT22;25777;47.824;18.982;2023-04-06T01:08:26;-1.90;99.90
40077;DHT22;25777;47.824;18.982;2023-04-06T01:11:01;-1.90;99.90
40077;DHT22;25777;47.824;18.982;2023-04-06T01:13:36;-1.80;99.90
40077;DHT22;25777;47.824;18.982;2023-04-06T01:16:03;-1.90;99.90
40077;DHT22;25777;47.824;18.982;2023-04-06T01:18:34;-2.00;99.90
40077;DHT22;25777;47.824;18.982;2023-04-06T01:21:08;-2.00;99.90
40077;DHT22;25777;47.824;18.982;2023-04-06T01:23:35;-2.00;99.90
40077;DHT22;25777;47.824;18.982;2023-04-06T01:26:06;-2.00;99.90
40077;DHT22;25777;47.824;18.982;2023-04-06T01:28:41;-1.90;99.90
40077;DHT22;25777;47.824;18.982;2023-04-06T01:31:10;-1.70;99.90
40077;DHT22;25777;47.824;18.982;2023-04-06T01:33:43;-1.70;99.90
40077;DHT22;25777;47.824;18.982;2023-04-06T01:36:16;-1.70;99.90
40077;DHT22;25777;47.824;18.982;2023-04-06T01:38:42;-1.60;99.90
40077;DHT22;25777;47.824;18.982;2023-04-06T01:41:09;-1.70;99.90
40077;DHT22;25777;47.824;18.982;2023-04-06T01:43:39;-1.70;99.90
40077;DHT22;25777;47.824;18.982;2023-04-06T01:46:08;-2.00;99.90
40077;DHT22;25777;47.824;18.982;2023-04-06T01:48:34;-1.90;99.90
40077;DHT22;25777;47.824;18.982;2023-04-06T01:51:00;-2.00;99.90
40077;DHT22;25777;47.824;18.982;2023-04-06T01:53:27;-2.00;99.90
40077;DHT22;25777;47.824;18.982;2023-04-06T01:55:53;-2.00;99.90
40077;DHT22;25777;47.824;18.982;2023-04-06T01:58:30;-2.00;99.90
40077;DHT22;25777;47.824;18.982;2023-04-06T02:01:04;-2.00;99.90
40077;DHT22;25777;47.824;18.982;2023-04-06T02:03:35;-1.90;99.90
40077;DHT22;25777;47.824;18.982;2023-04-06T02:06:06;-2.10;99.90
40077;DHT22;25777;47.824;18.982;2023-04-06T02:08:34;-2.00;99.90
40077;DHT22;25777;47.824;18.982;2023-04-06T02:11:00;-2.00;99.90
40077;DHT22;25777;47.824;18.982;2023-04-06T02:13:30;-1.90;99.90
40077;DHT22;25777;47.824;18.982;2023-04-06T02:15:57;-2.00;99.90
40077;DHT22;25777;47.824;18.982;2023-04-06T02:18:24;-1.90;99.90
40077;DHT22;25777;47.824;18.982;2023-04-06T02:21:01;-2.00;99.90
40077;DHT22;25777;47.824;18.982;2023-04-06T02:23:28;-2.00;99.90
40077;DHT22;25777;47.824;18.982;2023-04-06T02:25:54;-2.10;99.90
40077;DHT22;25777;47.824;18.982;2023-04-06T02:28:26;-2.20;99.90
40077;DHT22;25777;47.824;18.982;2023-04-06T02:30:52;-2.40;99.90
40077;DHT22;25777;47.824;18.982;2023-04-06T02:33:28;-2.40;99.90
40077;DHT22;25777;47.824;18.982;2023-04-06T02:35:56;-2.20;99.90
40077;DHT22;25777;47.824;18.982;2023-04-06T02:38:24;-1.90;99.90
40077;DHT22;25777;47.824;18.982;2023-04-06T02:40:50;-2.10;99.90
40077;DHT22;25777;47.824;18.982;2023-04-06T02:43:19;-2.20;99.90
40077;DHT22;25777;47.824;18.982;2023-04-06T02:45:53;-2.30;99.90
40077;DHT22;25777;47.824;18.982;2023-04-06T02:48:19;-2.50;99.90
40077;DHT22;25777;47.824;18.982;2023-04-06T02:50:47;-2.60;99.90
40077;DHT22;25777;47.824;18.982;2023-04-06T02:53:18;-2.60;99.90
40077;DHT22;25777;47.824;18.982;2023-04-06T02:55:44;-2.40;99.90
40077;DHT22;25777;47.824;18.982;2023-04-06T02:58:10;-2.20;99.90
40077;DHT22;25777;47.824;18.982;2023-04-06T03:00:37;-2.20;99.90
40077;DHT22;25777;47.824;18.982;2023-04-06T03:03:06;-2.20;99.90
40077;DHT22;25777;47.824;18.982;2023-04-06T03:05:34;-2.30;99.90
40077;DHT22;25777;47.824;18.982;2023-04-06T03:08:14;-2.30;99.90
40077;DHT22;25777;47.824;18.982;2023-04-06T03:11:06;-2.00;99.90
40077;DHT22;25777;47.824;18.982;2023-04-06T03:13:39;-2.20;99.90
40077;DHT22;25777;47.824;18.982;2023-04-06T03:18:57;-2.20;99.90
40077;DHT22;25777;47.824;18.982;2023-04-06T03:21:35;-2.00;99.90
40077;DHT22;25777;47.824;18.982;2023-04-06T03:24:04;-2.00;99.90
40077;DHT22;25777;47.824;18.982;2023-04-06T03:26:42;-2.10;99.90
40077;DHT22;25777;47.824;18.982;2023-04-06T03:29:13;-2.10;99.90
40077;DHT22;25777;47.824;18.982;2023-04-06T03:31:43;-2.10;99.90
40077;DHT22;25777;47.824;18.982;2023-04-06T03:34:18;-2.00;99.90
40077;DHT22;25777;47.824;18.982;2023-04-06T03:36:55;-2.00;99.90
40077;DHT22;25777;47.824;18.982;2023-04-06T03:39:22;-2.10;99.90
40077;DHT22;25777;47.824;18.982;2023-04-06T03:41:48;-2.30;99.90
40077;DHT22;25777;47.824;18.982;2023-04-06T03:44:14;-2.40;99.90
40077;DHT22;25777;47.824;18.982;2023-04-06T03:46:40;-2.60;99.90
40077;DHT22;25777;47.824;18.982;2023-04-06T03:49:06;-2.50;99.90
40077;DHT22;25777;47.824;18.982;2023-04-06T03:51:37;-2.50;99.90
40077;DHT22;25777;47.824;18.982;2023-04-06T03:54:10;-2.50;99.90
40077;DHT22;25777;47.824;18.982;2023-04-06T03:56:36;-2.30;99.90
40077;DHT22;25777;47.824;18.982;2023-04-06T03:59:12;-2.40;99.90
40077;DHT22;25777;47.824;18.982;2023-04-06T04:01:44;-2.20;99.90
40077;DHT22;25777;47.824;18.982;2023-04-06T04:04:12;-2.30;99.90
40077;DHT22;25777;47.824;18.982;2023-04-06T04:06:38;-2.40;99.90
40077;DHT22;25777;47.824;18.982;2023-04-06T04:09:23;-2.30;99.90
40077;DHT22;25777;47.824;18.982;2023-04-06T04:11:51;-2.20;99.90
40077;DHT22;25777;47.824;18.982;2023-04-06T04:14:18;-2.10;99.90
40077;DHT22;25777;47.824;18.982;2023-04-06T04:17:07;-2.00;99.90
40077;DHT22;25777;47.824;18.982;2023-04-06T04:19:33;-2.00;99.90
40077;DHT22;25777;47.824;18.982;2023-04-06T04:22:04;-2.00;99.90
40077;DHT22;25777;47.824;18.982;2023-04-06T04:24:34;-2.00;99.90
40077;DHT22;25777;47.824;18.982;2023-04-06T04:27:01;-2.00;99.90
40077;DHT22;25777;47.824;18.982;2023-04-06T04:29:29;-2.00;99.90
40077;DHT22;25777;47.824;18.982;2023-04-06T04:31:56;-1.90;99.90
40077;DHT22;25777;47.824;18.982;2023-04-06T04:34:30;-1.90;99.90
40077;DHT22;25777;47.824;18.982;2023-04-06T04:37:17;-1.70;99.90
40077;DHT22;25777;47.824;18.982;2023-04-06T04:39:43;-1.70;99.90
40077;DHT22;25777;47.824;18.982;2023-04-06T04:42:10;-1.70;99.90
40077;DHT22;25777;47.824;18.982;2023-04-06T04:44:39;-1.70;99.90
40077;DHT22;25777;47.824;18.982;2023-04-06T04:47:16;-1.70;99.90
40077;DHT22;25777;47.824;18.982;2023-04-06T04:49:44;-1.50;99.90
40077;DHT22;25777;47.824;18.982;2023-04-06T04:52:30;-1.50;99.90
40077;DHT22;25777;47.824;18.982;2023-04-06T04:54:57;-1.60;99.90
40077;DHT22;25777;47.824;18.982;2023-04-06T04:57:23;-1.70;99.90
40077;DHT22;25777;47.824;18.982;2023-04-06T04:59:56;-1.70;99.90
40077;DHT22;25777;47.824;18.982;2023-04-06T05:02:24;-1.70;99.90
40077;DHT22;25777;47.824;18.982;2023-04-06T05:04:57;-1.60;99.90
40077;DHT22;25777;47.824;18.982;2023-04-06T05:07:25;-1.50;99.90
40077;DHT22;25777;47.824;18.982;2023-04-06T05:10:04;-1.40;99.90
40077;DHT22;25777;47.824;18.982;2023-04-06T05:12:30;-1.30;99.90
40077;DHT22;25777;47.824;18.982;2023-04-06T05:15:08;-1.30;99.90
40077;DHT22;25777;47.824;18.982;2023-04-06T05:17:37;-1.20;99.90
40077;DHT22;25777;47.824;18.982;2023-04-06T05:20:08;-1.00;99.90
40077;DHT22;25777;47.824;18.982;2023-04-06T05:22:44;-0.80;99.90
40077;DHT22;25777;47.824;18.982;2023-04-06T05:25:18;-0.70;99.90
40077;DHT22;25777;47.824;18.982;2023-04-06T05:27:47;-0.70;99.90
40077;DHT22;25777;47.824;18.982;2023-04-06T05:30:15;-0.60;99.90
40077;DHT22;25777;47.824;18.982;2023-04-06T05:32:41;-0.60;99.70
40077;DHT22;25777;47.824;18.982;2023-04-06T05:35:15;-0.60;99.60
40077;DHT22;25777;47.824;18.982;2023-04-06T05:37:45;-0.40;99.10
40077;DHT22;25777;47.824;18.982;2023-04-06T05:40:11;-0.50;98.00
40077;DHT22;25777;47.824;18.982;2023-04-06T05:42:39;-0.40;98.20
40077;DHT22;25777;47.824;18.982;2023-04-06T05:45:18;-0.30;97.50
40077;DHT22;25777;47.824;18.982;2023-04-06T05:47:47;-0.40;97.10
40077;DHT22;25777;47.824;18.982;2023-04-06T05:50:15;-0.30;96.70
40077;DHT22;25777;47.824;18.982;2023-04-06T05:52:42;-0.20;96.50
40077;DHT22;25777;47.824;18.982;2023-04-06T05:55:17;-0.20;95.60
40077;DHT22;25777;47.824;18.982;2023-04-06T05:57:43;-0.10;95.90
40077;DHT22;25777;47.824;18.982;2023-04-06T06:00:10;0.00;95.50
40077;DHT22;25777;47.824;18.982;2023-04-06T06:02:45;0.10;94.80
40077;DHT22;25777;47.824;18.982;2023-04-06T06:05:21;0.20;94.80
40077;DHT22;25777;47.824;18.982;2023-04-06T06:07:47;0.30;94.80
40077;DHT22;25777;47.824;18.982;2023-04-06T06:10:13;0.30;94.30
40077;DHT22;25777;47.824;18.982;2023-04-06T06:12:47;0.40;93.70
40077;DHT22;25777;47.824;18.982;2023-04-06T06:15:15;0.40;93.60
40077;DHT22;25777;47.824;18.982;2023-04-06T06:17:43;0.50;92.90
40077;DHT22;25777;47.824;18.982;2023-04-06T06:20:14;0.60;92.60
40077;DHT22;25777;47.824;18.982;2023-04-06T06:22:40;0.60;92.30
40077;DHT22;25777;47.824;18.982;2023-04-06T06:25:07;0.70;91.70
40077;DHT22;25777;47.824;18.982;2023-04-06T06:27:35;0.70;91.50
40077;DHT22;25777;47.824;18.982;2023-04-06T06:30:02;0.90;91.80
40077;DHT22;25777;47.824;18.982;2023-04-06T06:32:31;1.00;91.00
40077;DHT22;25777;47.824;18.982;2023-04-06T06:34:57;1.00;90.10
40077;DHT22;25777;47.824;18.982;2023-04-06T06:37:33;1.00;90.50
40077;DHT22;25777;47.824;18.982;2023-04-06T06:39:59;1.20;90.20
40077;DHT22;25777;47.824;18.982;2023-04-06T06:42:26;1.20;90.90
40077;DHT22;25777;47.824;18.982;2023-04-06T06:44:53;1.30;90.80
40077;DHT22;25777;47.824;18.982;2023-04-06T06:47:21;1.40;89.90
40077;DHT22;25777;47.824;18.982;2023-04-06T06:49:56;1.40;89.10
40077;DHT22;25777;47.824;18.982;2023-04-06T06:52:24;1.60;88.60
40077;DHT22;25777;47.824;18.982;2023-04-06T06:54:58;1.60;88.50
40077;DHT22;25777;47.824;18.982;2023-04-06T06:57:29;1.70;89.40
40077;DHT22;25777;47.824;18.982;2023-04-06T06:59:55;1.90;86.50
40077;DHT22;25777;47.824;18.982;2023-04-06T07:02:22;1.90;86.10
40077;DHT22;25777;47.824;18.982;2023-04-06T07:04:55;2.00;85.10
40077;DHT22;25777;47.824;18.982;2023-04-06T07:07:23;2.20;85.60
40077;DHT22;25777;47.824;18.982;2023-04-06T07:09:50;2.20;83.10
40077;DHT22;25777;47.824;18.982;2023-04-06T07:12:20;2.40;84.40
40077;DHT22;25777;47.824;18.982;2023-04-06T07:14:54;2.40;82.00
40077;DHT22;25777;47.824;18.982;2023-04-06T07:17:26;2.50;82.90
40077;DHT22;25777;47.824;18.982;2023-04-06T07:19:57;2.70;82.50
40077;DHT22;25777;47.824;18.982;2023-04-06T07:22:26;2.90;83.10
40077;DHT22;25777;47.824;18.982;2023-04-06T07:25:07;2.70;80.70
40077;DHT22;25777;47.824;18.982;2023-04-06T07:27:33;2.80;79.40
40077;DHT22;25777;47.824;18.982;2023-04-06T07:29:59;2.90;81.40
40077;DHT22;25777;47.824;18.982;2023-04-06T07:32:31;3.20;81.70
40077;DHT22;25777;47.824;18.982;2023-04-06T07:34:57;3.20;78.40
40077;DHT22;25777;47.824;18.982;2023-04-06T07:37:33;3.30;78.90
40077;DHT22;25777;47.824;18.982;2023-04-06T07:39:59;3.60;77.90
40077;DHT22;25777;47.824;18.982;2023-04-06T07:42:26;3.50;73.10
40077;DHT22;25777;47.824;18.982;2023-04-06T07:44:52;3.60;72.70
40077;DHT22;25777;47.824;18.982;2023-04-06T07:47:19;3.80;71.10
40077;DHT22;25777;47.824;18.982;2023-04-06T07:49:46;4.00;71.40
40077;DHT22;25777;47.824;18.982;2023-04-06T07:52:12;4.10;71.40
40077;DHT22;25777;47.824;18.982;2023-04-06T07:54:41;4.00;69.30
40077;DHT22;25777;47.824;18.982;2023-04-06T07:57:07;4.00;69.50
40077;DHT22;25777;47.824;18.982;2023-04-06T07:59:34;4.30;71.20
40077;DHT22;25777;47.824;18.982;2023-04-06T08:02:08;4.50;69.60
40077;DHT22;25777;47.824;18.982;2023-04-06T08:04:35;4.50;69.30
40077;DHT22;25777;47.824;18.982;2023-04-06T08:07:03;4.60;67.90
40077;DHT22;25777;47.824;18.982;2023-04-06T08:09:29;4.80;68.20
40077;DHT22;25777;47.824;18.982;2023-04-06T08:12:01;4.50;67.90
40077;DHT22;25777;47.824;18.982;2023-04-06T08:14:27;4.60;67.20
40077;DHT22;25777;47.824;18.982;2023-04-06T08:16:53;4.50;66.60
40077;DHT22;25777;47.824;18.982;2023-04-06T08:19:20;4.90;69.60
40077;DHT22;25777;47.824;18.982;2023-04-06T08:21:48;5.30;66.40
40077;DHT22;25777;47.824;18.982;2023-04-06T08:24:20;5.40;66.40
40077;DHT22;25777;47.824;18.982;2023-04-06T08:26:53;5.40;64.00
40077;DHT22;25777;47.824;18.982;2023-04-06T08:29:22;5.40;65.00
40077;DHT22;25777;47.824;18.982;2023-04-06T08:31:56;5.50;63.20
40077;DHT22;25777;47.824;18.982;2023-04-06T08:34:22;6.10;62.50
40077;DHT22;25777;47.824;18.982;2023-04-06T08:36:50;6.30;64.30
40077;DHT22;25777;47.824;18.982;2023-04-06T08:39:18;5.90;62.70
40077;DHT22;25777;47.824;18.982;2023-04-06T08:41:52;5.50;62.40
40077;DHT22;25777;47.824;18.982;2023-04-06T08:44:29;5.80;63.40
40077;DHT22;25777;47.824;18.982;2023-04-06T08:47:00;6.10;62.20
40077;DHT22;25777;47.824;18.982;2023-04-06T08:49:28;6.30;63.80
40077;DHT22;25777;47.824;18.982;2023-04-06T08:51:55;6.20;60.70
40077;DHT22;25777;47.824;18.982;2023-04-06T08:54:23;6.20;64.70
40077;DHT22;25777;47.824;18.982;2023-04-06T08:56:50;6.50;63.30
40077;DHT22;25777;47.824;18.982;2023-04-06T08:59:23;6.80;63.20
40077;DHT22;25777;47.824;18.982;2023-04-06T09:01:51;6.90;60.90
40077;DHT22;25777;47.824;18.982;2023-04-06T09:04:21;6.40;57.70
40077;DHT22;25777;47.824;18.982;2023-04-06T09:06:49;6.50;59.80
40077;DHT22;25777;47.824;18.982;2023-04-06T09:09:21;6.70;59.30
40077;DHT22;25777;47.824;18.982;2023-04-06T09:11:52;6.80;59.00
40077;DHT22;25777;47.824;18.982;2023-04-06T09:14:38;6.40;56.90
40077;DHT22;25777;47.824;18.982;2023-04-06T09:17:05;6.70;59.30
40077;DHT22;25777;47.824;18.982;2023-04-06T09:19:31;6.80;59.30
40077;DHT22;25777;47.824;18.982;2023-04-06T09:22:05;6.80;58.70
40077;DHT22;25777;47.824;18.982;2023-04-06T09:25:00;6.60;57.10
40077;DHT22;25777;47.824;18.982;2023-04-06T09:27:38;6.70;56.20
40077;DHT22;25777;47.824;18.982;2023-04-06T09:30:09;6.80;56.70
40077;DHT22;25777;47.824;18.982;2023-04-06T09:35:28;7.00;57.50
40077;DHT22;25777;47.824;18.982;2023-04-06T09:37:56;6.80;55.90
40077;DHT22;25777;47.824;18.982;2023-04-06T09:40:22;7.10;59.40
40077;DHT22;25777;47.824;18.982;2023-04-06T09:42:49;7.50;59.60
40077;DHT22;25777;47.824;18.982;2023-04-06T09:45:18;7.30;57.70
40077;DHT22;25777;47.824;18.982;2023-04-06T09:47:56;7.40;56.50
40077;DHT22;25777;47.824;18.982;2023-04-06T09:50:27;7.30;54.20
40077;DHT22;25777;47.824;18.982;2023-04-06T09:52:54;7.30;56.90
40077;DHT22;25777;47.824;18.982;2023-04-06T09:55:36;7.50;57.40
40077;DHT22;25777;47.824;18.982;2023-04-06T09:58:08;7.30;55.70
40077;DHT22;25777;47.824;18.982;2023-04-06T10:06:33;7.50;55.40
40077;DHT22;25777;47.824;18.982;2023-04-06T10:09:07;7.50;55.80
40077;DHT22;25777;47.824;18.982;2023-04-06T10:11:35;7.80;55.60
40077;DHT22;25777;47.824;18.982;2023-04-06T10:14:02;7.80;50.50
40077;DHT22;25777;47.824;18.982;2023-04-06T10:16:30;7.70;53.00
40077;DHT22;25777;47.824;18.982;2023-04-06T10:19:02;8.10;52.70
40077;DHT22;25777;47.824;18.982;2023-04-06T10:21:31;8.40;55.00
40077;DHT22;25777;47.824;18.982;2023-04-06T10:24:02;8.70;53.10
40077;DHT22;25777;47.824;18.982;2023-04-06T10:26:33;8.20;49.80
40077;DHT22;25777;47.824;18.982;2023-04-06T10:29:03;8.40;51.50
40077;DHT22;25777;47.824;18.982;2023-04-06T10:31:54;8.60;50.90
40077;DHT22;25777;47.824;18.982;2023-04-06T10:34:35;8.80;51.10
40077;DHT22;25777;47.824;18.982;2023-04-06T10:37:13;8.40;49.20
40077;DHT22;25777;47.824;18.982;2023-04-06T10:39:57;8.70;47.50
40077;DHT22;25777;47.824;18.982;2023-04-06T10:42:38;8.70;46.80
40077;DHT22;25777;47.824;18.982;2023-04-06T10:45:18;8.60;47.30
40077;DHT22;25777;47.824;18.982;2023-04-06T10:47:44;8.20;46.10
40077;DHT22;25777;47.824;18.982;2023-04-06T10:50:14;8.10;48.20
40077;DHT22;25777;47.824;18.982;2023-04-06T10:52:46;8.50;49.20
40077;DHT22;25777;47.824;18.982;2023-04-06T10:55:16;8.40;48.90
40077;DHT22;25777;47.824;18.982;2023-04-06T10:57:46;8.70;49.00
40077;DHT22;25777;47.824;18.982;2023-04-06T11:00:15;8.30;48.80
40077;DHT22;25777;47.824;18.982;2023-04-06T11:02:41;8.30;47.90
40077;DHT22;25777;47.824;18.982;2023-04-06T11:05:11;8.50;48.60
40077;DHT22;25777;47.824;18.982;2023-04-06T11:07:44;8.70;51.90
40077;DHT22;25777;47.824;18.982;2023-04-06T11:10:22;8.70;51.40
40077;DHT22;25777;47.824;18.982;2023-04-06T11:13:00;9.20;51.60
40077;DHT22;25777;47.824;18.982;2023-04-06T11:15:34;9.20;49.50
40077;DHT22;25777;47.824;18.982;2023-04-06T11:18:04;9.00;51.30
40077;DHT22;25777;47.824;18.982;2023-04-06T11:20:30;8.50;48.40
40077;DHT22;25777;47.824;18.982;2023-04-06T11:23:27;8.70;51.60
40077;DHT22;25777;47.824;18.982;2023-04-06T11:26:01;9.10;51.70
40077;DHT22;25777;47.824;18.982;2023-04-06T11:28:29;9.50;51.90
40077;DHT22;25777;47.824;18.982;2023-04-06T11:30:57;9.60;50.70
40077;DHT22;25777;47.824;18.982;2023-04-06T11:33:26;9.80;51.60
40077;DHT22;25777;47.824;18.982;2023-04-06T11:35:52;8.90;49.40
40077;DHT22;25777;47.824;18.982;2023-04-06T11:38:19;8.70;49.90
40077;DHT22;25777;47.824;18.982;2023-04-06T11:40:46;9.10;51.00
40077;DHT22;25777;47.824;18.982;2023-04-06T11:43:30;9.40;51.00
40077;DHT22;25777;47.824;18.982;2023-04-06T11:49:06;9.90;49.90
40077;DHT22;25777;47.824;18.982;2023-04-06T11:51:37;9.80;48.10
40077;DHT22;25777;47.824;18.982;2023-04-06T11:54:04;9.50;48.70
40077;DHT22;25777;47.824;18.982;2023-04-06T11:56:38;9.00;48.60
40077;DHT22;25777;47.824;18.982;2023-04-06T11:59:04;8.90;50.60
40077;DHT22;25777;47.824;18.982;2023-04-06T12:01:30;8.80;51.80
40077;DHT22;25777;47.824;18.982;2023-04-06T12:03:59;8.90;51.00
40077;DHT22;25777;47.824;18.982;2023-04-06T12:06:26;8.70;51.50
40077;DHT22;25777;47.824;18.982;2023-04-06T12:08:55;8.70;52.00
40077;DHT22;25777;47.824;18.982;2023-04-06T12:11:24;8.90;51.70
40077;DHT22;25777;47.824;18.982;2023-04-06T12:13:50;8.80;50.60
40077;DHT22;25777;47.824;18.982;2023-04-06T12:16:23;9.00;53.10
40077;DHT22;25777;47.824;18.982;2023-04-06T12:18:51;9.30;53.50
40077;DHT22;25777;47.824;18.982;2023-04-06T12:21:17;9.30;52.50
40077;DHT22;25777;47.824;18.982;2023-04-06T12:23:45;9.30;49.60
40077;DHT22;25777;47.824;18.982;2023-04-06T12:26:23;9.20;52.00
40077;DHT22;25777;47.824;18.982;2023-04-06T12:29:01;9.10;49.00
40077;DHT22;25777;47.824;18.982;2023-04-06T12:31:37;9.00;51.40
40077;DHT22;25777;47.824;18.982;2023-04-06T12:34:12;9.30;50.50
40077;DHT22;25777;47.824;18.982;2023-04-06T12:36:39;9.50;52.10
40077;DHT22;25777;47.824;18.982;2023-04-06T12:39:06;9.50;50.10
40077;DHT22;25777;47.824;18.982;2023-04-06T12:41:32;9.30;50.70
40077;DHT22;25777;47.824;18.982;2023-04-06T12:43:59;9.30;50.90
40077;DHT22;25777;47.824;18.982;2023-04-06T12:46:29;9.00;49.40
40077;DHT22;25777;47.824;18.982;2023-04-06T12:48:58;8.70;49.70
40077;DHT22;25777;47.824;18.982;2023-04-06T12:51:29;8.80;51.40
40077;DHT22;25777;47.824;18.982;2023-04-06T12:53:56;8.80;49.30
40077;DHT22;25777;47.824;18.982;2023-04-06T12:56:22;8.90;48.70
40077;DHT22;25777;47.824;18.982;2023-04-06T12:58:51;9.00;50.30
40077;DHT22;25777;47.824;18.982;2023-04-06T13:01:23;9.00;50.40
40077;DHT22;25777;47.824;18.982;2023-04-06T13:03:51;9.10;49.40
40077;DHT22;25777;47.824;18.982;2023-04-06T13:06:18;9.00;50.80
40077;DHT22;25777;47.824;18.982;2023-04-06T13:08:45;9.00;56.00
40077;DHT22;25777;47.824;18.982;2023-04-06T13:11:12;8.90;53.10
40077;DHT22;25777;47.824;18.982;2023-04-06T13:13:41;8.90;52.90
40077;DHT22;25777;47.824;18.982;2023-04-06T13:16:14;9.00;53.00
40077;DHT22;25777;47.824;18.982;2023-04-06T13:18:44;8.70;50.60
40077;DHT22;25777;47.824;18.982;2023-04-06T13:21:17;8.50;51.70
40077;DHT22;25777;47.824;18.982;2023-04-06T13:23:43;8.50;54.50
40077;DHT22;25777;47.824;18.982;2023-04-06T13:26:15;8.60;54.00
40077;DHT22;25777;47.824;18.982;2023-04-06T13:28:49;8.60;52.90
40077;DHT22;25777;47.824;18.982;2023-04-06T13:31:17;8.60;54.00
40077;DHT22;25777;47.824;18.982;2023-04-06T13:33:51;8.60;52.60
40077;DHT22;25777;47.824;18.982;2023-04-06T13:36:18;8.60;54.90
40077;DHT22;25777;47.824;18.982;2023-04-06T13:38:46;8.60;55.60
40077;DHT22;25777;47.824;18.982;2023-04-06T13:41:20;8.50;54.50
40077;DHT22;25777;47.824;18.982;2023-04-06T13:43:48;8.60;54.90
40077;DHT22;25777;47.824;18.982;2023-04-06T13:46:21;8.60;56.20
40077;DHT22;25777;47.824;18.982;2023-04-06T13:48:50;8.30;58.70
40077;DHT22;25777;47.824;18.982;2023-04-06T13:51:17;8.30;57.70
40077;DHT22;25777;47.824;18.982;2023-04-06T13:53:52;8.00;57.00
40077;DHT22;25777;47.824;18.982;2023-04-06T13:56:20;8.00;57.60
40077;DHT22;25777;47.824;18.982;2023-04-06T13:58:54;8.20;56.90
40077;DHT22;25777;47.824;18.982;2023-04-06T14:01:21;8.20;59.20
40077;DHT22;25777;47.824;18.982;2023-04-06T14:03:48;8.20;56.60
40077;DHT22;25777;47.824;18.982;2023-04-06T14:06:16;8.30;57.00
40077;DHT22;25777;47.824;18.982;2023-04-06T14:08:43;8.40;58.50
40077;DHT22;25777;47.824;18.982;2023-04-06T14:11:13;8.10;59.80
40077;DHT22;25777;47.824;18.982;2023-04-06T14:13:42;7.90;61.10
40077;DHT22;25777;47.824;18.982;2023-04-06T14:16:13;7.90;61.70
40077;DHT22;25777;47.824;18.982;2023-04-06T14:18:39;7.70;63.00
40077;DHT22;25777;47.824;18.982;2023-04-06T14:21:05;7.70;60.20
40077;DHT22;25777;47.824;18.982;2023-04-06T14:23:34;7.70;61.20
40077;DHT22;25777;47.824;18.982;2023-04-06T14:26:08;7.70;60.40
40077;DHT22;25777;47.824;18.982;2023-04-06T14:28:35;7.90;62.60
40077;DHT22;25777;47.824;18.982;2023-04-06T14:31:14;7.70;60.00
40077;DHT22;25777;47.824;18.982;2023-04-06T14:34:00;7.80;62.60
40077;DHT22;25777;47.824;18.982;2023-04-06T14:36:27;7.80;61.30
40077;DHT22;25777;47.824;18.982;2023-04-06T14:39:00;7.80;60.70
40077;DHT22;25777;47.824;18.982;2023-04-06T14:41:27;7.90;61.40
40077;DHT22;25777;47.824;18.982;2023-04-06T14:43:55;8.00;61.40
40077;DHT22;25777;47.824;18.982;2023-04-06T14:46:21;7.70;59.30
40077;DHT22;25777;47.824;18.982;2023-04-06T14:48:50;7.80;60.50
40077;DHT22;25777;47.824;18.982;2023-04-06T14:51:18;7.90;64.00
40077;DHT22;25777;47.824;18.982;2023-04-06T14:53:46;7.70;61.70
40077;DHT22;25777;47.824;18.982;2023-04-06T14:56:12;7.60;62.90
40077;DHT22;25777;47.824;18.982;2023-04-06T14:58:38;7.70;64.20
40077;DHT22;25777;47.824;18.982;2023-04-06T15:01:09;7.70;62.40
40077;DHT22;25777;47.824;18.982;2023-04-06T15:03:37;7.60;62.20
40077;DHT22;25777;47.824;18.982;2023-04-06T15:06:11;7.10;65.00
40077;DHT22;25777;47.824;18.982;2023-04-06T15:08:53;7.20;66.70
40077;DHT22;25777;47.824;18.982;2023-04-06T15:11:26;7.20;69.70
40077;DHT22;25777;47.824;18.982;2023-04-06T15:14:00;7.30;67.50
40077;DHT22;25777;47.824;18.982;2023-04-06T15:16:43;7.30;67.90
40077;DHT22;25777;47.824;18.982;2023-04-06T15:19:23;7.30;65.80
40077;DHT22;25777;47.824;18.982;2023-04-06T15:22:02;7.30;67.20
40077;DHT22;25777;47.824;18.982;2023-04-06T15:24:28;7.40;66.40
40077;DHT22;25777;47.824;18.982;2023-04-06T15:26:55;7.50;65.70
40077;DHT22;25777;47.824;18.982;2023-04-06T15:29:40;7.20;69.70
40077;DHT22;25777;47.824;18.982;2023-04-06T15:32:09;7.10;71.60
40077;DHT22;25777;47.824;18.982;2023-04-06T15:34:42;6.90;72.90
40077;DHT22;25777;47.824;18.982;2023-04-06T15:37:27;6.80;73.30
40077;DHT22;25777;47.824;18.982;2023-04-06T15:40:03;6.80;75.30
40077;DHT22;25777;47.824;18.982;2023-04-06T15:42:32;6.70;75.30
40077;DHT22;25777;47.824;18.982;2023-04-06T15:45:01;6.60;76.50
40077;DHT22;25777;47.824;18.982;2023-04-06T15:47:27;6.40;78.70
40077;DHT22;25777;47.824;18.982;2023-04-06T15:49:54;6.30;80.90
40077;DHT22;25777;47.824;18.982;2023-04-06T15:52:21;6.10;81.40
40077;DHT22;25777;47.824;18.982;2023-04-06T15:54:48;5.80;85.00
40077;DHT22;25777;47.824;18.982;2023-04-06T15:57:14;5.80;85.20
40077;DHT22;25777;47.824;18.982;2023-04-06T15:59:51;5.80;85.00